Time;durP1;ratioP1;P1;durP2;ratioP2;P2;SDS_P1;SDS_P2;PMS_P1;PMS_P2;Temp;Humidity;BMP_temperature;BMP_pressure;BME280_temperature;BME280_humidity;BME280_pressure;Samples;Min_cycle;Max_cycle;Signal;HPM_P1;HPM_P2
2021/10/24 00:00:39;;;;;;;;;42.00;38.75;;;;;-142.59;100.00;56100.38;5054745;28;65904;-70
2021/10/24 00:03:04;;;;;;;;;43.75;39.00;;;;;-142.59;100.00;56100.38;5073517;28;50300;-72
2021/10/24 00:05:30;;;;;;;;;39.25;38.00;;;;;-142.59;100.00;56100.38;5072346;28;62910;-69
2021/10/24 00:07:55;;;;;;;;;44.00;40.00;;;;;-142.59;100.00;56100.38;5072821;28;73760;-73
2021/10/24 00:10:21;;;;;;;;;41.25;36.00;;;;;-142.59;100.00;56100.38;5073727;28;50316;-70
2021/10/24 00:12:46;;;;;;;;;35.00;33.00;;;;;-142.59;100.00;56100.38;5055397;28;67665;-69
2021/10/24 00:15:11;;;;;;;;;36.75;35.25;;;;;-142.59;100.00;56100.38;5073387;28;62887;-81
2021/10/24 00:17:37;;;;;;;;;43.25;39.25;;;;;-142.59;100.00;56100.38;5038933;28;74163;-69
2021/10/24 00:20:03;;;;;;;;;36.50;34.75;;;;;-142.59;100.00;56100.38;5054281;28;67538;-82
2021/10/24 00:22:28;;;;;;;;;35.75;34.75;;;;;-142.59;100.00;56100.38;5055548;28;50096;-82
2021/10/24 00:24:54;;;;;;;;;43.75;36.00;;;;;-142.59;100.00;56100.38;5073435;28;49644;-75
2021/10/24 00:27:19;;;;;;;;;34.00;34.00;;;;;-142.59;100.00;56100.38;5072271;28;75267;-73
2021/10/24 00:29:45;;;;;;;;;31.50;30.25;;;;;-142.59;100.00;56100.38;5038197;28;55934;-69
2021/10/24 00:32:10;;;;;;;;;40.00;35.75;;;;;-142.59;100.00;56100.38;5073325;28;49780;-70
2021/10/24 00:34:36;;;;;;;;;32.75;30.50;;;;;-142.59;100.00;56100.38;5073066;28;49624;-78
2021/10/24 00:37:01;;;;;;;;;39.00;35.75;;;;;-142.59;100.00;56100.38;5072915;28;50180;-84
2021/10/24 00:39:27;;;;;;;;;41.50;36.75;;;;;-142.59;100.00;56100.38;5037245;28;72434;-78
2021/10/24 00:41:54;;;;;;;;;36.75;35.25;;;;;-142.59;100.00;56100.38;5054783;28;49634;-83
2021/10/24 00:44:31;;;;;;;;;39.50;36.25;;;;;-142.59;100.00;56100.38;5073182;28;50029;-75
2021/10/24 00:47:01;;;;;;;;;41.50;36.50;;;;;-142.59;100.00;56100.38;5054605;28;49803;-73
2021/10/24 00:49:26;;;;;;;;;36.50;34.75;;;;;-142.59;100.00;56100.38;5054811;28;49836;-73
2021/10/24 00:51:53;;;;;;;;;36.00;35.00;;;;;-142.59;100.00;56100.38;5054990;28;49697;-85
2021/10/24 00:54:19;;;;;;;;;44.00;35.00;;;;;-142.59;100.00;56100.38;5055414;28;49683;-72
2021/10/24 00:56:45;;;;;;;;;39.50;36.50;;;;;-142.59;100.00;56100.38;5055538;28;51424;-70
2021/10/24 00:59:11;;;;;;;;;34.75;33.00;;;;;-142.59;100.00;56100.38;5056303;28;49764;-82
2021/10/24 01:01:36;;;;;;;;;35.50;34.50;;;;;-142.59;100.00;56100.38;5055819;28;49941;-70
2021/10/24 01:04:03;;;;;;;;;35.50;31.25;;;;;-142.59;100.00;56100.38;5051551;28;49826;-79
2021/10/24 01:06:32;;;;;;;;;33.25;32.00;;;;;-142.59;100.00;56100.38;5054872;28;49759;-79
2021/10/24 01:08:57;;;;;;;;;33.50;30.00;;;;;-142.59;100.00;56100.38;5053684;28;49653;-84
2021/10/24 01:11:24;;;;;;;;;32.50;30.00;;;;;-142.59;100.00;56100.38;5035630;28;66427;-82
2021/10/24 01:13:49;;;;;;;;;34.25;30.25;;;;;-142.59;100.00;56100.38;5037492;28;50315;-85
2021/10/24 01:16:15;;;;;;;;;34.25;34.00;;;;;-142.59;100.00;56100.38;5033440;28;76055;-83
2021/10/24 01:18:41;;;;;;;;;34.25;31.25;;;;;-142.59;100.00;56100.38;5050729;28;49658;-84
2021/10/24 01:21:07;;;;;;;;;36.25;31.50;;;;;-142.59;100.00;56100.38;5052525;28;49996;-85
2021/10/24 01:23:32;;;;;;;;;34.25;33.25;;;;;-142.59;100.00;56100.38;5052242;28;49669;-84
2021/10/24 01:25:58;;;;;;;;;37.00;34.50;;;;;-142.59;100.00;56100.38;5051670;28;61039;-83
2021/10/24 01:28:24;;;;;;;;;37.50;35.75;;;;;-142.59;100.00;56100.38;5052054;28;50242;-83
2021/10/24 01:30:51;;;;;;;;;31.75;30.25;;;;;-142.59;100.00;56100.38;5052310;28;49868;-85
2021/10/24 01:33:16;;;;;;;;;38.25;36.00;;;;;-142.59;100.00;56100.38;5052286;28;49780;-87
2021/10/24 01:35:55;;;;;;;;;36.25;32.00;;;;;-142.59;100.00;56100.38;5049517;28;75821;-79
2021/10/24 01:38:22;;;;;;;;;38.50;32.75;;;;;-142.59;100.00;56100.38;5052516;28;49761;-70
2021/10/24 01:40:47;;;;;;;;;34.75;29.25;;;;;-142.59;100.00;56100.38;5050190;28;49841;-69
2021/10/24 01:43:13;;;;;;;;;37.00;31.75;;;;;-142.59;100.00;56100.38;5051804;28;49823;-72
2021/10/24 01:45:38;;;;;;;;;36.50;31.50;;;;;-142.59;100.00;56100.38;5049487;28;70490;-73
2021/10/24 01:48:04;;;;;;;;;34.25;31.25;;;;;-142.59;100.00;56100.38;5051564;28;49676;-72
2021/10/24 01:50:29;;;;;;;;;35.75;34.75;;;;;-142.59;100.00;56100.38;5050924;28;51759;-69
2021/10/24 01:52:55;;;;;;;;;38.25;32.75;;;;;-142.59;100.00;56100.38;5051505;28;49932;-69
2021/10/24 01:55:21;;;;;;;;;29.25;28.25;;;;;-142.59;100.00;56100.38;5051402;28;49711;-69
2021/10/24 01:57:47;;;;;;;;;31.75;28.75;;;;;-142.59;100.00;56100.38;5049652;28;49965;-70
2021/10/24 02:00:13;;;;;;;;;28.50;27.00;;;;;-142.59;100.00;56100.38;5051481;28;49716;-70
2021/10/24 02:02:38;;;;;;;;;32.50;31.25;;;;;-142.59;100.00;56100.38;5049970;28;49939;-73
2021/10/24 02:05:04;;;;;;;;;36.75;33.00;;;;;-142.59;100.00;56100.38;5066639;28;49900;-69
2021/10/24 02:07:30;;;;;;;;;34.25;31.75;;;;;-142.59;100.00;56100.38;5071549;28;50007;-69
2021/10/24 02:09:55;;;;;;;;;31.25;29.50;;;;;-142.59;100.00;56100.38;5052928;28;50640;-69
2021/10/24 02:12:21;;;;;;;;;32.25;31.75;;;;;-142.59;100.00;56100.38;5071291;28;49861;-70
2021/10/24 02:14:46;;;;;;;;;30.25;27.00;;;;;-142.59;100.00;56100.38;5070957;28;49928;-70
2021/10/24 02:17:12;;;;;;;;;33.75;29.75;;;;;-142.59;100.00;56100.38;5069960;28;69420;-69
2021/10/24 02:19:37;;;;;;;;;28.50;27.00;;;;;-142.59;100.00;56100.38;5070748;28;49990;-69
2021/10/24 02:22:03;;;;;;;;;37.00;34.00;;;;;-142.59;100.00;56100.38;5071701;28;49955;-68
2021/10/24 02:24:29;;;;;;;;;40.75;37.25;;;;;-142.59;100.00;56100.38;5070837;28;50372;-69
2021/10/24 02:26:54;;;;;;;;;41.75;37.75;;;;;-142.59;100.00;56100.38;5052520;28;49780;-69
2021/10/24 02:29:19;;;;;;;;;30.00;27.75;;;;;-142.59;100.00;56100.38;5070694;28;64882;-69
2021/10/24 02:31:45;;;;;;;;;31.50;30.00;;;;;-142.59;100.00;56100.38;5070815;28;59424;-69
2021/10/24 02:34:10;;;;;;;;;27.25;27.25;;;;;-142.59;100.00;56100.38;5070535;28;49769;-69
2021/10/24 02:36:35;;;;;;;;;35.50;30.75;;;;;-142.59;100.00;56100.38;5070821;28;49884;-74
2021/10/24 02:39:01;;;;;;;;;28.25;28.25;;;;;-142.59;100.00;56100.38;5070352;28;68598;-83
2021/10/24 02:41:27;;;;;;;;;29.50;28.50;;;;;-142.59;100.00;56100.38;5053221;28;49953;-80
2021/10/24 02:43:52;;;;;;;;;27.50;26.00;;;;;-142.59;100.00;56100.38;5070635;28;49789;-78
2021/10/24 02:46:18;;;;;;;;;30.75;27.75;;;;;-142.59;100.00;56100.38;5070236;28;59082;-68
2021/10/24 02:48:43;;;;;;;;;34.00;29.00;;;;;-142.59;100.00;56100.38;5070322;28;55475;-76
2021/10/24 02:51:09;;;;;;;;;34.75;32.75;;;;;-142.59;100.00;56100.38;5053203;28;49138;-85
2021/10/24 02:53:34;;;;;;;;;26.25;21.25;;;;;-142.59;100.00;56100.38;5052894;28;50392;-69
2021/10/24 02:56:00;;;;;;;;;25.75;22.00;;;;;-142.59;100.00;56100.38;5051866;28;69036;-75
2021/10/24 02:58:25;;;;;;;;;30.50;30.25;;;;;-142.59;100.00;56100.38;5035020;28;68834;-69
2021/10/24 03:00:51;;;;;;;;;28.25;26.75;;;;;-142.59;100.00;56100.38;5070980;28;49763;-73
2021/10/24 03:03:17;;;;;;;;;24.25;23.00;;;;;-142.59;100.00;56100.38;5051061;28;74722;-85
2021/10/24 03:05:42;;;;;;;;;31.75;29.25;;;;;-142.59;100.00;56100.38;5070643;28;49830;-69
2021/10/24 03:08:08;;;;;;;;;31.00;26.75;;;;;-142.59;100.00;56100.38;5052741;28;50377;-76
2021/10/24 03:10:33;;;;;;;;;26.50;25.50;;;;;-142.59;100.00;56100.38;5070150;28;64724;-83
2021/10/24 03:12:58;;;;;;;;;30.50;27.50;;;;;-142.59;100.00;56100.38;5051628;28;76312;-75
2021/10/24 03:15:24;;;;;;;;;27.25;26.50;;;;;-142.59;100.00;56100.38;5070001;28;64015;-78
2021/10/24 03:17:50;;;;;;;;;35.75;30.25;;;;;-142.59;100.00;56100.38;5052477;28;50118;-83
2021/10/24 03:20:15;;;;;;;;;26.50;26.00;;;;;-142.59;100.00;56100.38;5069594;28;56879;-69
2021/10/24 03:22:40;;;;;;;;;31.75;26.75;;;;;-142.59;100.00;56100.38;5070217;28;49937;-81
2021/10/24 03:25:06;;;;;;;;;26.50;26.50;;;;;-142.59;100.00;56100.38;5070542;28;49843;-78
2021/10/24 03:27:32;;;;;;;;;32.00;25.75;;;;;-142.59;100.00;56100.38;5055400;28;49782;-69
2021/10/24 03:29:58;;;;;;;;;28.75;25.75;;;;;-142.59;100.00;56100.38;5056060;28;49891;-70
2021/10/24 03:32:24;;;;;;;;;25.75;25.75;;;;;-142.59;100.00;56100.38;5055919;28;49975;-76
2021/10/24 03:34:49;;;;;;;;;26.50;23.50;;;;;-142.59;100.00;56100.38;5055206;28;55262;-82
2021/10/24 03:37:14;;;;;;;;;31.50;29.00;;;;;-142.59;100.00;56100.38;5073017;28;67603;-84
2021/10/24 03:39:40;;;;;;;;;30.50;29.25;;;;;-142.59;100.00;56100.38;5075577;28;49602;-68
2021/10/24 03:42:05;;;;;;;;;27.75;24.00;;;;;-142.59;100.00;56100.38;5074894;28;72917;-77
2021/10/24 03:44:31;;;;;;;;;26.50;23.00;;;;;-142.59;100.00;56100.38;5039924;28;49999;-78
2021/10/24 03:46:56;;;;;;;;;26.50;26.50;;;;;-142.59;100.00;56100.38;5073860;28;49850;-75
2021/10/24 03:49:22;;;;;;;;;25.50;23.50;;;;;-142.59;100.00;56100.38;5055306;28;50225;-68
2021/10/24 03:51:47;;;;;;;;;27.25;24.50;;;;;-142.59;100.00;56100.38;5073528;28;50388;-68
2021/10/24 03:54:12;;;;;;;;;17.00;17.00;;;;;-142.59;100.00;56100.38;5072525;28;70748;-68
2021/10/24 03:56:38;;;;;;;;;25.25;21.50;;;;;-142.59;100.00;56100.38;5054856;28;63376;-68
2021/10/24 03:59:03;;;;;;;;;26.00;25.25;;;;;-142.59;100.00;56100.38;5073763;28;49748;-69
2021/10/24 04:01:29;;;;;;;;;22.75;20.50;;;;;-142.59;100.00;56100.38;5053947;28;74218;-72
2021/10/24 04:03:54;;;;;;;;;25.50;24.75;;;;;-142.59;100.00;56100.38;5054967;28;50113;-69
2021/10/24 04:06:20;;;;;;;;;27.00;26.00;;;;;-142.59;100.00;56100.38;5073023;28;56510;-68
2021/10/24 04:08:45;;;;;;;;;25.00;23.50;;;;;-142.59;100.00;56100.38;5073509;28;49913;-68
2021/10/24 04:11:10;;;;;;;;;20.50;19.50;;;;;-142.59;100.00;56100.38;5072620;28;71679;-69
2021/10/24 04:13:36;;;;;;;;;23.75;23.00;;;;;-142.59;100.00;56100.38;5072577;28;66754;-68
2021/10/24 04:16:01;;;;;;;;;23.00;21.00;;;;;-142.59;100.00;56100.38;5027636;28;64945;-68
2021/10/24 04:18:26;;;;;;;;;23.25;18.75;;;;;-142.59;100.00;56100.38;5052721;28;49587;-68
2021/10/24 04:20:54;;;;;;;;;24.75;24.25;;;;;-142.59;100.00;56100.38;5051505;28;50379;-69
2021/10/24 04:23:20;;;;;;;;;23.75;21.00;;;;;-142.59;100.00;56100.38;5051517;28;49809;-69
2021/10/24 04:25:45;;;;;;;;;30.00;25.75;;;;;-142.59;100.00;56100.38;5052955;28;49797;-71
2021/10/24 04:28:10;;;;;;;;;24.50;23.25;;;;;-142.59;100.00;56100.38;5029919;28;53731;-75
2021/10/24 04:30:36;;;;;;;;;23.50;21.75;;;;;-142.59;100.00;56100.38;5066835;28;70308;-74
2021/10/24 04:33:01;;;;;;;;;20.25;19.25;;;;;-142.59;100.00;56100.38;5054633;28;50191;-81
2021/10/24 04:35:27;;;;;;;;;22.75;20.25;;;;;-142.59;100.00;56100.38;5071981;28;65803;-78
2021/10/24 04:37:52;;;;;;;;;17.00;16.50;;;;;-142.59;100.00;56100.38;5037049;28;66223;-75
2021/10/24 04:40:17;;;;;;;;;24.50;20.75;;;;;-142.59;100.00;56100.38;5072307;28;66444;-81
2021/10/24 04:42:43;;;;;;;;;24.00;21.00;;;;;-142.59;100.00;56100.38;5054304;28;49957;-75
2021/10/24 04:45:08;;;;;;;;;23.75;23.75;;;;;-142.59;100.00;56100.38;5073051;28;49936;-81
2021/10/24 04:47:35;;;;;;;;;24.50;23.75;;;;;-142.59;100.00;56100.38;5073416;28;49871;-81
2021/10/24 04:50:00;;;;;;;;;23.25;23.00;;;;;-142.59;100.00;56100.38;5054743;28;50412;-84
2021/10/24 04:52:25;;;;;;;;;26.25;23.50;;;;;-142.59;100.00;56100.38;5071773;28;49838;-85
2021/10/24 04:54:51;;;;;;;;;21.00;18.25;;;;;-142.59;100.00;56100.38;5053922;28;67278;-86
2021/10/24 04:57:16;;;;;;;;;23.00;21.00;;;;;-142.59;100.00;56100.38;5072743;28;50135;-76
2021/10/24 04:59:42;;;;;;;;;19.50;19.50;;;;;-142.59;100.00;56100.38;5071941;28;75450;-84
2021/10/24 05:02:07;;;;;;;;;24.75;23.00;;;;;-142.59;100.00;56100.38;5072169;28;68845;-83
2021/10/24 05:04:33;;;;;;;;;19.00;17.50;;;;;-142.59;100.00;56100.38;5072414;28;49762;-84
2021/10/24 05:06:58;;;;;;;;;22.25;20.75;;;;;-142.59;100.00;56100.38;5054191;28;50001;-84
2021/10/24 05:09:23;;;;;;;;;24.25;23.75;;;;;-142.59;100.00;56100.38;5071724;28;69500;-83
2021/10/24 05:11:49;;;;;;;;;27.50;26.75;;;;;-142.59;100.00;56100.38;5072630;28;50056;-84
2021/10/24 05:14:14;;;;;;;;;21.00;20.00;;;;;-142.59;100.00;56100.38;5072341;28;49850;-84
2021/10/24 05:16:40;;;;;;;;;20.00;18.00;;;;;-142.59;100.00;56100.38;5053586;28;54945;-85
2021/10/24 05:19:05;;;;;;;;;30.50;24.50;;;;;-142.59;100.00;56100.38;5071304;28;50327;-86
2021/10/24 05:21:31;;;;;;;;;24.75;23.50;;;;;-142.59;100.00;56100.38;5071413;28;59302;-79
2021/10/24 05:23:56;;;;;;;;;32.00;26.00;;;;;-142.59;100.00;56100.38;5054089;28;49796;-84
2021/10/24 05:26:22;;;;;;;;;23.00;21.00;;;;;-142.59;100.00;56100.38;5072660;28;49861;-86
2021/10/24 05:28:47;;;;;;;;;23.00;20.50;;;;;-142.59;100.00;56100.38;5072125;28;50011;-84
2021/10/24 05:31:13;;;;;;;;;24.00;23.00;;;;;-142.59;100.00;56100.38;5071634;28;66767;-81
2021/10/24 05:33:38;;;;;;;;;25.50;23.75;;;;;-142.59;100.00;56100.38;5071652;28;62861;-82
2021/10/24 05:36:04;;;;;;;;;28.50;25.50;;;;;-142.59;100.00;56100.38;5072357;28;49876;-82
2021/10/24 05:38:29;;;;;;;;;27.00;25.50;;;;;-142.59;100.00;56100.38;5053374;28;64274;-80
2021/10/24 05:40:55;;;;;;;;;25.50;24.00;;;;;-142.59;100.00;56100.38;5054351;28;50015;-80
2021/10/24 05:43:20;;;;;;;;;26.50;25.50;;;;;-142.59;100.00;56100.38;5070644;28;56086;-78
2021/10/24 05:45:45;;;;;;;;;20.25;20.25;;;;;-142.59;100.00;56100.38;5052951;28;49800;-70
2021/10/24 05:48:11;;;;;;;;;28.75;28.25;;;;;-142.59;100.00;56100.38;5070450;28;50040;-70
2021/10/24 05:50:37;;;;;;;;;25.25;23.25;;;;;-142.59;100.00;56100.38;5071163;28;49923;-84
2021/10/24 05:53:03;;;;;;;;;20.75;19.00;;;;;-142.59;100.00;56100.38;5054007;28;49720;-74
2021/10/24 05:55:28;;;;;;;;;30.00;24.25;;;;;-142.59;100.00;56100.38;5071263;28;49732;-71
2021/10/24 05:57:54;;;;;;;;;23.50;21.50;;;;;-142.59;100.00;56100.38;5070215;28;74788;-72
2021/10/24 06:00:19;;;;;;;;;24.25;21.50;;;;;-142.59;100.00;56100.38;5070656;28;70299;-74
2021/10/24 06:02:44;;;;;;;;;17.00;17.00;;;;;-142.59;100.00;56100.38;5070183;28;63410;-76
2021/10/24 06:05:10;;;;;;;;;22.50;20.00;;;;;-142.59;100.00;56100.38;5053061;28;50084;-74
2021/10/24 06:07:36;;;;;;;;;20.75;20.75;;;;;-142.59;100.00;56100.38;5071598;28;49629;-69
2021/10/24 06:10:21;;;;;;;;;25.75;20.00;;;;;-142.59;100.00;56100.38;5071516;28;49882;-74
2021/10/24 06:12:51;;;;;;;;;19.25;19.25;;;;;-142.59;100.00;56100.38;5056335;28;49680;-80
2021/10/24 06:15:17;;;;;;;;;19.25;18.50;;;;;-142.59;100.00;56100.38;5053848;28;49872;-69
2021/10/24 06:17:44;;;;;;;;;21.25;20.00;;;;;-142.59;100.00;56100.38;5070882;28;49816;-69
2021/10/24 06:20:10;;;;;;;;;23.50;20.50;;;;;-142.59;100.00;56100.38;5071129;28;49772;-76
2021/10/24 06:22:36;;;;;;;;;23.50;22.50;;;;;-142.59;100.00;56100.38;5071369;28;49704;-68
2021/10/24 06:25:01;;;;;;;;;23.00;18.75;;;;;-142.59;100.00;56100.38;5070708;28;49910;-69
2021/10/24 06:27:26;;;;;;;;;20.00;20.00;;;;;-142.59;100.00;56100.38;5069321;28;71701;-76
2021/10/24 06:29:52;;;;;;;;;19.75;18.25;;;;;-142.59;100.00;56100.38;5053083;28;49973;-70
2021/10/24 06:32:17;;;;;;;;;22.00;19.00;;;;;-142.59;100.00;56100.38;5071564;28;49872;-68
2021/10/24 06:34:43;;;;;;;;;19.25;18.50;;;;;-142.59;100.00;56100.38;5070649;28;49874;-70
2021/10/24 06:37:08;;;;;;;;;24.50;21.25;;;;;-142.59;100.00;56100.38;5051865;28;71052;-69
2021/10/24 06:39:34;;;;;;;;;22.75;19.00;;;;;-142.59;100.00;56100.38;5070888;28;49861;-72
2021/10/24 06:41:59;;;;;;;;;25.00;19.00;;;;;-142.59;100.00;56100.38;5070782;28;49852;-68
2021/10/24 06:44:24;;;;;;;;;25.75;21.25;;;;;-142.59;100.00;56100.38;5070280;28;62645;-69
2021/10/24 06:46:50;;;;;;;;;19.25;19.25;;;;;-142.59;100.00;56100.38;5052840;28;51548;-69
2021/10/24 06:49:15;;;;;;;;;26.25;20.00;;;;;-142.59;100.00;56100.38;5070387;28;60616;-69
2021/10/24 06:51:41;;;;;;;;;19.00;17.00;;;;;-142.59;100.00;56100.38;5052147;28;49703;-74
2021/10/24 06:54:06;;;;;;;;;21.00;19.75;;;;;-142.59;100.00;56100.38;5070235;28;63745;-69
2021/10/24 06:56:31;;;;;;;;;20.00;20.00;;;;;-142.59;100.00;56100.38;5070030;28;72767;-69
2021/10/24 06:58:57;;;;;;;;;19.50;18.50;;;;;-142.59;100.00;56100.38;5070026;28;68403;-69
2021/10/24 07:01:22;;;;;;;;;20.00;20.00;;;;;-142.59;100.00;56100.38;5072765;28;64553;-69
2021/10/24 07:03:48;;;;;;;;;22.25;22.25;;;;;-142.59;100.00;56100.38;5055255;28;63369;-68
2021/10/24 07:06:13;;;;;;;;;23.00;18.00;;;;;-142.59;100.00;56100.38;5073659;28;50189;-74
2021/10/24 07:08:38;;;;;;;;;23.75;22.75;;;;;-142.59;100.00;56100.38;5074294;28;49775;-69
2021/10/24 07:11:04;;;;;;;;;23.75;23.75;;;;;-142.59;100.00;56100.38;5074634;28;49729;-70
2021/10/24 07:13:29;;;;;;;;;23.50;23.25;;;;;-142.59;100.00;56100.38;5074603;28;49976;-68
2021/10/24 07:15:55;;;;;;;;;30.25;27.25;;;;;-142.59;100.00;56100.38;5073118;28;74245;-72
2021/10/24 07:18:20;;;;;;;;;26.00;22.50;;;;;-142.59;100.00;56100.38;5074250;28;49719;-69
2021/10/24 07:20:45;;;;;;;;;18.50;18.50;;;;;-142.59;100.00;56100.38;5074307;28;50680;-69
2021/10/24 07:23:11;;;;;;;;;26.50;24.50;;;;;-142.59;100.00;56100.38;5073880;28;54278;-69
2021/10/24 07:25:36;;;;;;;;;27.25;23.50;;;;;-142.59;100.00;56100.38;5074100;28;51105;-69
2021/10/24 07:28:02;;;;;;;;;26.00;24.00;;;;;-142.59;100.00;56100.38;5073304;28;68132;-68
2021/10/24 07:30:27;;;;;;;;;24.75;23.75;;;;;-142.59;100.00;56100.38;5055202;28;65403;-69
2021/10/24 07:32:52;;;;;;;;;28.50;24.25;;;;;-142.59;100.00;56100.38;5074463;28;49846;-73
2021/10/24 07:35:18;;;;;;;;;25.25;20.00;;;;;-142.59;100.00;56100.38;5055879;28;51171;-70
2021/10/24 07:37:43;;;;;;;;;25.50;24.25;;;;;-142.59;100.00;56100.38;5074814;28;49684;-82
2021/10/24 07:40:09;;;;;;;;;21.25;20.00;;;;;-142.59;100.00;56100.38;5076550;28;50106;-75
2021/10/24 07:42:35;;;;;;;;;22.00;20.00;;;;;-142.59;100.00;56100.38;5042302;28;49894;-82
2021/10/24 07:45:00;;;;;;;;;27.00;25.75;;;;;-142.59;100.00;56100.38;5074967;28;50371;-80
2021/10/24 07:47:30;;;;;;;;;28.75;25.00;;;;;-142.59;100.00;56100.38;5073949;28;49787;-74
2021/10/24 07:50:03;;;;;;;;;24.00;22.75;;;;;-142.59;100.00;56100.38;5040254;28;50476;-69
2021/10/24 07:52:28;;;;;;;;;31.75;25.25;;;;;-142.59;100.00;56100.38;5055097;28;49831;-69
2021/10/24 07:54:54;;;;;;;;;26.50;24.00;;;;;-142.59;100.00;56100.38;5073077;28;50295;-74
2021/10/24 07:57:21;;;;;;;;;29.75;26.00;;;;;-142.59;100.00;56100.38;5073480;28;49775;-70
2021/10/24 07:59:46;;;;;;;;;20.00;14.00;;;;;-142.59;100.00;56100.38;5073907;28;49919;-69
2021/10/24 08:02:13;;;;;;;;;21.50;20.00;;;;;-142.59;100.00;56100.38;5072972;28;49930;-82
2021/10/24 08:04:38;;;;;;;;;21.50;20.50;;;;;-142.59;100.00;56100.38;5072985;28;50350;-69
2021/10/24 08:07:04;;;;;;;;;23.50;20.25;;;;;-142.59;100.00;56100.38;5054107;28;63203;-68
2021/10/24 08:09:30;;;;;;;;;24.50;23.50;;;;;-142.59;100.00;56100.38;5073452;28;49817;-68
2021/10/24 08:11:56;;;;;;;;;20.25;16.25;;;;;-142.59;100.00;56100.38;5072705;28;54472;-69
2021/10/24 08:14:22;;;;;;;;;22.25;20.75;;;;;-142.59;100.00;56100.38;5073206;28;49717;-69
2021/10/24 08:16:47;;;;;;;;;18.00;17.50;;;;;-142.59;100.00;56100.38;5073234;28;50140;-74
2021/10/24 08:19:13;;;;;;;;;25.00;20.25;;;;;-142.59;100.00;56100.38;5072740;28;60687;-70
2021/10/24 08:21:38;;;;;;;;;22.75;22.50;;;;;-142.59;100.00;56100.38;5073603;28;49660;-76
2021/10/24 08:24:04;;;;;;;;;27.75;25.00;;;;;-142.59;100.00;56100.38;5037384;28;74439;-73
2021/10/24 08:26:31;;;;;;;;;23.75;22.00;;;;;-142.59;100.00;56100.38;5073010;28;49758;-72
2021/10/24 08:28:57;;;;;;;;;17.00;17.00;;;;;-142.59;100.00;56100.38;5073363;28;49814;-67
2021/10/24 08:31:25;;;;;;;;;23.50;20.50;;;;;-142.59;100.00;56100.38;5073466;28;49834;-70
2021/10/24 08:33:52;;;;;;;;;21.00;19.00;;;;;-142.59;100.00;56100.38;5072780;28;50430;-69
2021/10/24 08:36:18;;;;;;;;;20.75;17.00;;;;;-142.59;100.00;56100.38;5055132;28;50111;-70
2021/10/24 08:38:43;;;;;;;;;24.25;23.25;;;;;-142.59;100.00;56100.38;5057607;28;49749;-68
2021/10/24 08:41:09;;;;;;;;;21.00;20.75;;;;;-142.59;100.00;56100.38;5072599;28;55911;-72
2021/10/24 08:43:36;;;;;;;;;22.25;20.00;;;;;-142.59;100.00;56100.38;5037937;28;50761;-67
2021/10/24 08:46:02;;;;;;;;;26.00;21.25;;;;;-142.59;100.00;56100.38;5072831;28;49822;-69
2021/10/24 08:48:27;;;;;;;;;18.75;15.25;;;;;-142.59;100.00;56100.38;5054430;28;49755;-70
2021/10/24 08:50:53;;;;;;;;;22.75;20.50;;;;;-142.59;100.00;56100.38;5072917;28;49795;-72
2021/10/24 08:53:21;;;;;;;;;21.25;17.00;;;;;-142.59;100.00;56100.38;5072662;28;50396;-67
2021/10/24 08:55:46;;;;;;;;;17.75;17.75;;;;;-142.59;100.00;56100.38;5072848;28;49981;-67
2021/10/24 08:58:13;;;;;;;;;18.00;17.00;;;;;-142.59;100.00;56100.38;5072318;28;51176;-74
2021/10/24 09:00:38;;;;;;;;;23.25;20.75;;;;;-142.59;100.00;56100.38;5038221;28;49859;-77
2021/10/24 09:03:09;;;;;;;;;21.50;17.00;;;;;-142.59;100.00;56100.38;5029179;27;52743;-75
2021/10/24 09:05:36;;;;;;;;;11.50;10.75;;;;;-142.59;100.00;56100.38;5076143;27;49954;-73
2021/10/24 09:08:01;;;;;;;;;17.75;17.00;;;;;-142.59;100.00;56100.38;5101631;27;49715;-74
2021/10/24 09:10:34;;;;;;;;;17.25;16.25;;;;;-142.59;100.00;56100.38;5110155;27;49760;-80
2021/10/24 09:13:01;;;;;;;;;22.50;19.75;;;;;-142.59;100.00;56100.38;5106965;27;50656;-71
2021/10/24 09:15:26;;;;;;;;;16.50;13.25;;;;;-142.59;100.00;56100.38;5101454;27;49817;-77
2021/10/24 09:17:52;;;;;;;;;18.50;15.00;;;;;-142.59;100.00;56100.38;5104981;27;60836;-82
2021/10/24 09:20:18;;;;;;;;;17.00;17.00;;;;;-142.59;100.00;56100.38;5070391;27;59726;-68
2021/10/24 09:22:43;;;;;;;;;17.75;17.50;;;;;-142.59;100.00;56100.38;5043681;28;74452;-72
2021/10/24 09:25:13;;;;;;;;;16.00;14.25;;;;;-142.59;100.00;56100.38;5062106;28;49770;-72
2021/10/24 09:27:50;;;;;;;;;17.25;17.25;;;;;-142.59;100.00;56100.38;5076441;28;50123;-72
2021/10/24 09:30:31;;;;;;;;;13.75;12.75;;;;;-142.59;100.00;56100.38;5088695;28;49691;-78
2021/10/24 09:33:04;;;;;;;;;17.25;13.00;;;;;-142.59;100.00;56100.38;5088229;28;49648;-73
2021/10/24 09:35:37;;;;;;;;;14.50;14.50;;;;;-142.59;100.00;56100.38;5070766;28;49493;-76
2021/10/24 09:38:04;;;;;;;;;18.75;16.50;;;;;-142.59;100.00;56100.38;5088787;28;49627;-71
2021/10/24 09:40:31;;;;;;;;;16.25;14.25;;;;;-142.59;100.00;56100.38;5089411;28;49467;-76
2021/10/24 09:43:20;;;;;;;;;19.50;19.00;;;;;-142.59;100.00;56100.38;5089683;28;50109;-69
2021/10/24 09:46:07;;;;;;;;;19.00;14.75;;;;;-142.59;100.00;56100.38;5089827;28;49595;-68
2021/10/24 09:48:33;;;;;;;;;16.50;16.50;;;;;-142.59;100.00;56100.38;5063058;28;49357;-68
2021/10/24 09:51:00;;;;;;;;;20.25;16.25;;;;;-142.59;100.00;56100.38;5069918;28;49307;-67
2021/10/24 09:53:27;;;;;;;;;14.00;14.00;;;;;-142.59;100.00;56100.38;5084212;28;49567;-70
2021/10/24 09:55:52;;;;;;;;;16.75;15.50;;;;;-142.59;100.00;56100.38;5083239;28;49642;-66
2021/10/24 09:58:18;;;;;;;;;18.75;16.75;;;;;-142.59;100.00;56100.38;5087920;28;50027;-70
2021/10/24 10:00:43;;;;;;;;;18.50;14.00;;;;;-142.59;100.00;56100.38;5047700;28;50045;-67
2021/10/24 10:03:09;;;;;;;;;14.75;13.75;;;;;-142.59;100.00;56100.38;5057529;28;49757;-67
2021/10/24 10:05:38;;;;;;;;;17.00;15.25;;;;;-142.59;100.00;56100.38;5077579;28;50083;-68
2021/10/24 10:08:07;;;;;;;;;22.25;17.00;;;;;-142.59;100.00;56100.38;5041210;28;49846;-66
2021/10/24 10:10:33;;;;;;;;;17.00;17.00;;;;;-142.59;100.00;56100.38;5041019;28;49904;-66
2021/10/24 10:13:00;;;;;;;;;20.25;16.25;;;;;-142.59;100.00;56100.38;5053339;28;49888;-70
2021/10/24 10:15:29;;;;;;;;;17.75;16.00;;;;;-142.59;100.00;56100.38;5055200;28;49761;-70
2021/10/24 10:18:00;;;;;;;;;18.75;18.00;;;;;-142.59;100.00;56100.38;5041501;28;49686;-71
2021/10/24 10:20:27;;;;;;;;;17.25;16.50;;;;;-142.59;100.00;56100.38;5040949;28;49955;-71
2021/10/24 10:23:06;;;;;;;;;24.75;24.75;;;;;-142.59;100.00;56100.38;5053330;28;49908;-71
2021/10/24 10:25:31;;;;;;;;;22.50;19.25;;;;;-142.59;100.00;56100.38;5072977;28;49777;-70
2021/10/24 10:27:57;;;;;;;;;20.25;18.75;;;;;-142.59;100.00;56100.38;5071687;28;49796;-70
2021/10/24 10:30:40;;;;;;;;;18.75;18.00;;;;;-142.59;100.00;56100.38;5035947;28;57095;-73
2021/10/24 10:33:34;;;;;;;;;18.75;18.75;;;;;-142.59;100.00;56100.38;5036435;28;51485;-72
2021/10/24 10:36:03;;;;;;;;;24.00;19.00;;;;;-142.59;100.00;56100.38;5071027;28;49854;-72
2021/10/24 10:38:36;;;;;;;;;24.25;22.25;;;;;-142.59;100.00;56100.38;5039054;28;49842;-72
2021/10/24 10:41:02;;;;;;;;;22.50;22.25;;;;;-142.59;100.00;56100.38;5038155;28;49579;-71
2021/10/24 10:43:28;;;;;;;;;23.25;20.75;;;;;-142.59;100.00;56100.38;5045875;28;49632;-73
2021/10/24 10:45:56;;;;;;;;;21.25;19.75;;;;;-142.59;100.00;56100.38;5027499;28;49692;-76
2021/10/24 10:48:25;;;;;;;;;20.75;18.75;;;;;-142.59;100.00;56100.38;5075282;28;49779;-77
2021/10/24 10:51:24;;;;;;;;;19.75;19.75;;;;;-142.59;100.00;56100.38;5059415;28;49820;-74